»·PEaware :: DAL1 KABQ-KSAN

DAL1 :: KABQ-KSAN

FLIGHT INFORMATION

Flight Status: Arrived
Operator:
Delta Air Lines
More flights by this operator :: More flights under this callsign
Pilot: Jordan D. (16847)
Aircraft: BOEING 737-600
(B736)
More flights by this aircraft type
Origin: KABQ Albuquerque Intl Sunport
United States
Destination: KSAN San Diego Intl-Lindbergh
United States
More flights between these airports :: More routes between these airports
Route: +BOSQE3 SJN J18 HOGGZ LUCKI1
File this flight plan on PilotEdge
Remarks:
Altitude:
(Current/Filed)
40,000ft
Speed:
(Current/Filed)
456kts
Departed: 27-Nov-17 04:55 PM
Arrived: 27-Nov-17 06:27 PM
Distance/Time
Traveled:
545nm/1:32
Distance/Time
To Go:
Arrived

Flight Plot

Page will automatically refresh every two minutes.

Flight plan parsing failed; only flown route is shown


Map Options




Map Legend


Flown Route
Filed Route
Departure Airport
Arrival Airport
Navaid (VOR, NDB)
Fix

Horizontal Profiles

Position Reports

Time Latitude Longitude Heading Altitude Ground
Speed
27-Nov-17 16:28 35.047881 -106.617703 178 5362ft 0kts
27-Nov-17 16:29 35.047881 -106.617703 178 5362ft 0kts
27-Nov-17 16:30 35.047881 -106.617703 178 5362ft 0kts
27-Nov-17 16:31 35.047881 -106.617703 178 5362ft 0kts
27-Nov-17 16:32 35.047881 -106.617703 178 5362ft 0kts
27-Nov-17 16:33 35.047881 -106.617703 178 5363ft 0kts
27-Nov-17 16:34 35.047881 -106.617703 178 5363ft 0kts
27-Nov-17 16:35 35.047881 -106.617703 178 5362ft 0kts
27-Nov-17 16:36 35.047881 -106.617703 178 5362ft 0kts
27-Nov-17 16:37 35.047881 -106.617703 178 5362ft 0kts
27-Nov-17 16:38 35.047881 -106.617703 178 5362ft 0kts
27-Nov-17 16:39 35.047881 -106.617703 178 5362ft 0kts
27-Nov-17 16:40 35.047881 -106.617703 178 5362ft 0kts
27-Nov-17 16:41 35.047881 -106.617703 178 5362ft 0kts
27-Nov-17 16:42 35.047881 -106.617703 178 5362ft 0kts
27-Nov-17 16:43 35.047881 -106.617703 178 5362ft 0kts
27-Nov-17 16:44 35.047881 -106.617703 178 5362ft 0kts
27-Nov-17 16:45 35.047881 -106.617703 178 5362ft 0kts
27-Nov-17 16:46 35.048061 -106.617696 194 5362ft 2kts
27-Nov-17 16:47 35.048294 -106.617313 270 5362ft 0kts
27-Nov-17 16:48 35.048294 -106.617313 270 5362ft 0kts
27-Nov-17 16:49 35.048294 -106.617315 270 5362ft 0kts
27-Nov-17 16:50 35.046621 -106.619578 178 5362ft 14kts
27-Nov-17 16:51 35.046139 -106.619578 181 5362ft 0kts
27-Nov-17 16:52 35.045648 -106.619514 146 5362ft 10kts
27-Nov-17 16:53 35.045855 -106.613088 100 5363ft 12kts
27-Nov-17 16:54 35.045787 -106.604530 89 5363ft 31kts
27-Nov-17 16:55 35.045852 -106.593614 90 5363ft 31kts
27-Nov-17 16:56 35.045829 -106.585176 90 5363ft 23kts
27-Nov-17 16:57 35.045789 -106.576417 91 5362ft 19kts
27-Nov-17 16:58 35.044696 -106.575675 177 5362ft 0kts
27-Nov-17 16:59 35.044695 -106.575675 177 5362ft 0kts
27-Nov-17 17:00 35.044062 -106.593589 269 5363ft 146kts
27-Nov-17 17:01 35.029104 -106.643775 218 7699ft 180kts
27-Nov-17 17:02 34.978034 -106.691502 216 8986ft 264kts
27-Nov-17 17:03 34.921921 -106.742993 216 9193ft 256kts
27-Nov-17 17:04 34.858656 -106.795513 217 11938ft 293kts
27-Nov-17 17:05 34.791147 -106.862835 222 14955ft 334kts
27-Nov-17 17:06 34.716208 -106.939110 222 17969ft 366kts
27-Nov-17 17:07 34.635510 -107.020426 222 20974ft 386kts
27-Nov-17 17:08 34.582732 -107.131960 252 23982ft 388kts
27-Nov-17 17:09 34.550627 -107.257377 253 26979ft 389kts
27-Nov-17 17:10 34.519451 -107.382058 254 29868ft 386kts
27-Nov-17 17:11 34.487275 -107.511062 253 31374ft 410kts
27-Nov-17 17:12 34.453257 -107.645457 253 32875ft 423kts
27-Nov-17 17:13 34.433632 -107.786179 268 34375ft 428kts
27-Nov-17 17:14 34.432632 -107.930559 269 35878ft 427kts
27-Nov-17 17:15 34.431885 -108.073423 269 37374ft 422kts
27-Nov-17 17:16 34.431420 -108.214449 269 38874ft 413kts
27-Nov-17 17:17 34.430895 -108.351988 269 39989ft 410kts
27-Nov-17 17:18 34.430068 -108.493570 269 39997ft 431kts
27-Nov-17 17:19 34.428993 -108.641299 269 39997ft 440kts
27-Nov-17 17:20 34.427883 -108.789160 269 39996ft 439kts
27-Nov-17 17:21 34.426499 -108.936971 268 39996ft 439kts
27-Nov-17 17:22 34.424709 -109.085269 268 39996ft 439kts
27-Nov-17 17:23 34.395600 -109.228146 248 39997ft 441kts
27-Nov-17 17:24 34.349496 -109.366159 248 39996ft 441kts
27-Nov-17 17:25 34.303063 -109.503299 248 39996ft 441kts
27-Nov-17 17:26 34.257698 -109.641477 250 39996ft 441kts
27-Nov-17 17:27 34.214265 -109.779863 249 39996ft 441kts
27-Nov-17 17:28 34.170576 -109.918170 249 39996ft 441kts
27-Nov-17 17:29 34.127044 -110.056873 250 39996ft 441kts
27-Nov-17 17:30 34.083412 -110.194992 249 39996ft 441kts
27-Nov-17 17:31 34.039396 -110.333411 249 39996ft 441kts
27-Nov-17 17:32 34.000569 -110.454907 249 39993ft 441kts
27-Nov-17 17:33 33.955256 -110.595839 251 40000ft 462kts
27-Nov-17 17:34 33.907951 -110.742622 251 40000ft 472kts
27-Nov-17 17:35 33.860384 -110.889417 250 39999ft 471kts
27-Nov-17 17:36 33.812669 -111.035938 250 39999ft 471kts
27-Nov-17 17:37 33.764614 -111.182794 250 39999ft 471kts
27-Nov-17 17:38 33.716533 -111.329039 250 39999ft 471kts
27-Nov-17 17:39 33.668103 -111.475650 250 39999ft 471kts
27-Nov-17 17:40 33.619679 -111.621560 250 39999ft 471kts
27-Nov-17 17:41 33.571086 -111.767302 250 39999ft 471kts
27-Nov-17 17:42 33.522162 -111.913360 250 39999ft 471kts
27-Nov-17 17:43 33.473220 -112.058797 249 39999ft 471kts
27-Nov-17 17:44 33.424559 -112.202744 249 39999ft 471kts
27-Nov-17 17:45 33.374606 -112.349841 249 39999ft 471kts
27-Nov-17 17:46 33.325167 -112.494761 249 39999ft 471kts
27-Nov-17 17:47 33.275521 -112.639634 249 39999ft 471kts
27-Nov-17 17:48 33.225559 -112.784775 249 39999ft 471kts
27-Nov-17 17:49 33.175585 -112.929310 249 39999ft 471kts
27-Nov-17 17:50 33.125271 -113.074184 249 39999ft 471kts
27-Nov-17 17:51 33.074986 -113.218344 249 40000ft 471kts
27-Nov-17 17:52 33.024524 -113.362385 249 39999ft 471kts
27-Nov-17 17:53 32.973733 -113.506756 249 39999ft 471kts
27-Nov-17 17:54 32.922924 -113.650586 249 39999ft 471kts
27-Nov-17 17:55 32.872484 -113.794354 249 39999ft 471kts
27-Nov-17 17:56 32.821421 -113.938336 249 39999ft 471kts
27-Nov-17 17:57 32.779058 -114.084550 265 39999ft 466kts
27-Nov-17 17:58 32.781674 -114.237790 274 39999ft 463kts
27-Nov-17 17:59 32.791134 -114.389842 283 39999ft 460kts
27-Nov-17 18:00 32.827782 -114.532469 290 39999ft 457kts
27-Nov-17 18:01 32.867037 -114.676820 287 39998ft 458kts
27-Nov-17 18:02 32.877363 -114.828236 270 40000ft 464kts
27-Nov-17 18:03 32.873655 -114.981653 271 39999ft 464kts
27-Nov-17 18:04 32.870168 -115.135439 270 39999ft 464kts
27-Nov-17 18:05 32.866213 -115.288780 270 39999ft 464kts
27-Nov-17 18:06 32.850856 -115.441997 262 39999ft 467kts
27-Nov-17 18:07 32.827206 -115.593798 261 40002ft 467kts
27-Nov-17 18:08 32.803101 -115.739949 261 39992ft 443kts
27-Nov-17 18:09 32.781384 -115.884459 266 39200ft 439kts
27-Nov-17 18:10 32.771731 -116.027883 267 35711ft 433kts
27-Nov-17 18:11 32.761119 -116.168726 267 32175ft 424kts
27-Nov-17 18:12 32.750339 -116.308482 267 28167ft 421kts
27-Nov-17 18:13 32.739646 -116.445510 267 24173ft 412kts
27-Nov-17 18:14 32.737121 -116.577832 294 20516ft 381kts
27-Nov-17 18:15 32.779870 -116.672714 301 18243ft 340kts
27-Nov-17 18:16 32.823191 -116.767303 301 15744ft 313kts
27-Nov-17 18:17 32.863432 -116.855907 301 13238ft 295kts
27-Nov-17 18:18 32.882967 -116.949034 281 11168ft 290kts
27-Nov-17 18:19 32.893645 -117.042897 281 9368ft 282kts
27-Nov-17 18:20 32.899208 -117.134628 251 7545ft 285kts
27-Nov-17 18:21 32.831260 -117.181520 201 6061ft 287kts
27-Nov-17 18:22 32.759047 -117.186829 128 5943ft 250kts
27-Nov-17 18:23 32.763684 -117.115723 65 6005ft 219kts
27-Nov-17 18:24 32.776972 -117.055473 91 5871ft 187kts
27-Nov-17 18:25 32.762249 -116.995226 101 5293ft 186kts
27-Nov-17 18:26 32.725688 -116.954157 175 4394ft 195kts
27-Nov-17 18:27 32.690030 -116.986090 262 3544ft 158kts
27-Nov-17 18:28 32.695350 -117.035132 294 2756ft 148kts
27-Nov-17 18:29 32.707279 -117.081556 293 1950ft 146kts
27-Nov-17 18:30 32.718505 -117.127585 293 1027ft 143kts
27-Nov-17 18:31 32.728647 -117.169410 294 256ft 122kts
27-Nov-17 18:32 32.733979 -117.191442 196 23ft 18kts
27-Nov-17 18:33 32.733225 -117.192563 283 23ft 0kts
27-Nov-17 18:34 32.733598 -117.194089 286 22ft 5kts
27-Nov-17 18:35 32.733639 -117.194250 286 23ft 0kts
27-Nov-17 18:36 32.733816 -117.195041 285 23ft 12kts
27-Nov-17 18:37 32.735432 -117.202277 221 22ft 9kts
27-Nov-17 18:38 32.733890 -117.202806 208 23ft 3kts
27-Nov-17 18:39 32.733749 -117.203393 270 23ft 0kts
27-Nov-17 18:40 32.733749 -117.203415 270 23ft 0kts
27-Nov-17 18:41 32.733749 -117.203416 270 23ft 0kts
27-Nov-17 18:42 32.733749 -117.203416 270 23ft 0kts
27-Nov-17 18:43 32.733749 -117.203416 270 23ft 0kts
27-Nov-17 18:44 32.733749 -117.203416 270 23ft 0kts
27-Nov-17 18:45 32.733749 -117.203416 270 23ft 0kts

Navigation Log

Ident Type
Flight plan parsing failed, navigation log unavailable